sensor_id;sensor_type;location;lat;lon;timestamp;temperature;humidity
7174;DHT22;3628;48.654;8.932;2022-10-17T00:00:40;12.20;99.90
7174;DHT22;3628;48.654;8.932;2022-10-17T00:03:06;12.10;99.90
7174;DHT22;3628;48.654;8.932;2022-10-17T00:05:32;12.10;99.90
7174;DHT22;3628;48.654;8.932;2022-10-17T00:07:57;12.10;99.90
7174;DHT22;3628;48.654;8.932;2022-10-17T00:10:23;12.10;99.90
7174;DHT22;3628;48.654;8.932;2022-10-17T00:12:50;12.00;99.90
7174;DHT22;3628;48.654;8.932;2022-10-17T00:15:18;12.00;99.90
7174;DHT22;3628;48.654;8.932;2022-10-17T00:17:44;12.00;99.90
7174;DHT22;3628;48.654;8.932;2022-10-17T00:20:10;12.00;99.90
7174;DHT22;3628;48.654;8.932;2022-10-17T00:22:36;12.00;99.90
7174;DHT22;3628;48.654;8.932;2022-10-17T00:25:02;12.00;99.90
7174;DHT22;3628;48.654;8.932;2022-10-17T00:27:27;12.00;99.90
7174;DHT22;3628;48.654;8.932;2022-10-17T00:29:53;12.00;99.90
7174;DHT22;3628;48.654;8.932;2022-10-17T00:32:19;12.00;99.90
7174;DHT22;3628;48.654;8.932;2022-10-17T00:34:45;11.90;99.90
7174;DHT22;3628;48.654;8.932;2022-10-17T00:37:10;11.90;99.90
7174;DHT22;3628;48.654;8.932;2022-10-17T00:39:36;11.90;99.90
7174;DHT22;3628;48.654;8.932;2022-10-17T00:42:02;11.90;99.90
7174;DHT22;3628;48.654;8.932;2022-10-17T00:46:58;11.90;99.90
7174;DHT22;3628;48.654;8.932;2022-10-17T00:49:26;11.90;99.90
7174;DHT22;3628;48.654;8.932;2022-10-17T00:52:04;11.90;99.90
7174;DHT22;3628;48.654;8.932;2022-10-17T00:54:33;11.80;99.90
7174;DHT22;3628;48.654;8.932;2022-10-17T00:57:01;11.80;99.90
7174;DHT22;3628;48.654;8.932;2022-10-17T00:59:28;11.80;99.90
7174;DHT22;3628;48.654;8.932;2022-10-17T01:02:04;11.80;99.90
7174;DHT22;3628;48.654;8.932;2022-10-17T01:04:30;11.70;99.90
7174;DHT22;3628;48.654;8.932;2022-10-17T01:06:56;11.70;99.90
7174;DHT22;3628;48.654;8.932;2022-10-17T01:09:22;11.70;99.90
7174;DHT22;3628;48.654;8.932;2022-10-17T01:11:55;11.70;99.90
7174;DHT22;3628;48.654;8.932;2022-10-17T01:14:39;11.70;99.90
7174;DHT22;3628;48.654;8.932;2022-10-17T01:17:23;11.70;99.90
7174;DHT22;3628;48.654;8.932;2022-10-17T01:22:49;11.60;99.90
7174;DHT22;3628;48.654;8.932;2022-10-17T01:25:44;11.60;99.90
7174;DHT22;3628;48.654;8.932;2022-10-17T01:36:39;11.50;99.90
7174;DHT22;3628;48.654;8.932;2022-10-17T01:39:12;11.50;99.90
7174;DHT22;3628;48.654;8.932;2022-10-17T01:42:01;11.50;99.90
7174;DHT22;3628;48.654;8.932;2022-10-17T01:45:00;11.50;99.90
7174;DHT22;3628;48.654;8.932;2022-10-17T01:47:30;11.40;99.90
7174;DHT22;3628;48.654;8.932;2022-10-17T01:50:19;11.40;99.90
7174;DHT22;3628;48.654;8.932;2022-10-17T01:52:56;11.40;99.90
7174;DHT22;3628;48.654;8.932;2022-10-17T01:55:35;11.40;99.90
7174;DHT22;3628;48.654;8.932;2022-10-17T01:58:16;11.40;99.90
7174;DHT22;3628;48.654;8.932;2022-10-17T02:00:46;11.30;99.90
7174;DHT22;3628;48.654;8.932;2022-10-17T02:03:16;11.30;99.90
7174;DHT22;3628;48.654;8.932;2022-10-17T02:05:43;11.30;99.90
7174;DHT22;3628;48.654;8.932;2022-10-17T02:08:10;11.30;99.90
7174;DHT22;3628;48.654;8.932;2022-10-17T02:10:55;11.20;99.90
7174;DHT22;3628;48.654;8.932;2022-10-17T02:18:54;11.20;99.90
7174;DHT22;3628;48.654;8.932;2022-10-17T02:21:50;11.20;99.90
7174;DHT22;3628;48.654;8.932;2022-10-17T02:24:27;11.10;99.90
7174;DHT22;3628;48.654;8.932;2022-10-17T02:29:34;11.10;99.90
7174;DHT22;3628;48.654;8.932;2022-10-17T02:32:10;11.10;99.90
7174;DHT22;3628;48.654;8.932;2022-10-17T02:34:42;11.10;99.90
7174;DHT22;3628;48.654;8.932;2022-10-17T02:37:11;11.10;99.90
7174;DHT22;3628;48.654;8.932;2022-10-17T02:39:39;11.00;99.90
7174;DHT22;3628;48.654;8.932;2022-10-17T02:42:09;11.00;99.90
7174;DHT22;3628;48.654;8.932;2022-10-17T02:44:37;11.00;99.90
7174;DHT22;3628;48.654;8.932;2022-10-17T02:47:30;11.00;99.90
7174;DHT22;3628;48.654;8.932;2022-10-17T02:49:57;10.90;99.90
7174;DHT22;3628;48.654;8.932;2022-10-17T02:55:06;10.90;99.90
7174;DHT22;3628;48.654;8.932;2022-10-17T02:58:01;10.80;99.90
7174;DHT22;3628;48.654;8.932;2022-10-17T03:00:25;10.80;99.90
7174;DHT22;3628;48.654;8.932;2022-10-17T03:02:52;10.80;99.90
7174;DHT22;3628;48.654;8.932;2022-10-17T03:05:29;10.70;99.90
7174;DHT22;3628;48.654;8.932;2022-10-17T03:07:55;10.70;99.90
7174;DHT22;3628;48.654;8.932;2022-10-17T03:10:21;10.70;99.90
7174;DHT22;3628;48.654;8.932;2022-10-17T03:12:47;10.70;99.90
7174;DHT22;3628;48.654;8.932;2022-10-17T03:15:13;10.70;99.90
7174;DHT22;3628;48.654;8.932;2022-10-17T03:17:39;10.60;99.90
7174;DHT22;3628;48.654;8.932;2022-10-17T03:20:05;10.60;99.90
7174;DHT22;3628;48.654;8.932;2022-10-17T03:22:31;10.60;99.90
7174;DHT22;3628;48.654;8.932;2022-10-17T03:24:57;10.50;99.90
7174;DHT22;3628;48.654;8.932;2022-10-17T03:27:23;10.50;99.90
7174;DHT22;3628;48.654;8.932;2022-10-17T03:29:49;10.50;99.90
7174;DHT22;3628;48.654;8.932;2022-10-17T03:32:14;10.50;99.90
7174;DHT22;3628;48.654;8.932;2022-10-17T03:34:40;10.40;99.90
7174;DHT22;3628;48.654;8.932;2022-10-17T03:37:05;10.40;99.90
7174;DHT22;3628;48.654;8.932;2022-10-17T03:39:31;10.40;99.90
7174;DHT22;3628;48.654;8.932;2022-10-17T03:41:57;10.30;99.90
7174;DHT22;3628;48.654;8.932;2022-10-17T03:44:22;10.30;99.90
7174;DHT22;3628;48.654;8.932;2022-10-17T03:46:48;10.30;99.90
7174;DHT22;3628;48.654;8.932;2022-10-17T03:49:13;10.30;99.90
7174;DHT22;3628;48.654;8.932;2022-10-17T03:51:39;10.30;99.90
7174;DHT22;3628;48.654;8.932;2022-10-17T03:54:04;10.20;99.90
7174;DHT22;3628;48.654;8.932;2022-10-17T03:56:30;10.20;99.90
7174;DHT22;3628;48.654;8.932;2022-10-17T03:58:56;10.20;99.90
7174;DHT22;3628;48.654;8.932;2022-10-17T04:01:22;10.20;99.90
7174;DHT22;3628;48.654;8.932;2022-10-17T04:03:52;10.20;99.90
7174;DHT22;3628;48.654;8.932;2022-10-17T04:06:19;10.20;99.90
7174;DHT22;3628;48.654;8.932;2022-10-17T04:08:45;10.20;99.90
7174;DHT22;3628;48.654;8.932;2022-10-17T04:11:16;10.20;99.90
7174;DHT22;3628;48.654;8.932;2022-10-17T04:13:43;10.20;99.90
7174;DHT22;3628;48.654;8.932;2022-10-17T04:16:13;10.10;99.90
7174;DHT22;3628;48.654;8.932;2022-10-17T04:18:39;10.10;99.90
7174;DHT22;3628;48.654;8.932;2022-10-17T04:21:05;10.10;99.90
7174;DHT22;3628;48.654;8.932;2022-10-17T04:23:31;10.10;99.90
7174;DHT22;3628;48.654;8.932;2022-10-17T04:25:58;10.10;99.90
7174;DHT22;3628;48.654;8.932;2022-10-17T04:28:25;10.00;99.90
7174;DHT22;3628;48.654;8.932;2022-10-17T04:31:09;10.00;99.90
7174;DHT22;3628;48.654;8.932;2022-10-17T04:33:36;10.10;99.90
7174;DHT22;3628;48.654;8.932;2022-10-17T04:36:07;10.00;99.90
7174;DHT22;3628;48.654;8.932;2022-10-17T04:38:34;10.00;99.90
7174;DHT22;3628;48.654;8.932;2022-10-17T04:41:01;10.00;99.90
7174;DHT22;3628;48.654;8.932;2022-10-17T04:43:28;10.00;99.90
7174;DHT22;3628;48.654;8.932;2022-10-17T04:45:56;10.00;99.90
7174;DHT22;3628;48.654;8.932;2022-10-17T04:48:22;10.00;99.90
7174;DHT22;3628;48.654;8.932;2022-10-17T04:50:58;10.00;99.90
7174;DHT22;3628;48.654;8.932;2022-10-17T04:53:25;10.00;99.90
7174;DHT22;3628;48.654;8.932;2022-10-17T04:55:52;10.00;99.90
7174;DHT22;3628;48.654;8.932;2022-10-17T04:58:18;10.00;99.90
7174;DHT22;3628;48.654;8.932;2022-10-17T05:00:44;10.00;99.90
7174;DHT22;3628;48.654;8.932;2022-10-17T05:03:10;10.00;99.90
7174;DHT22;3628;48.654;8.932;2022-10-17T05:05:39;10.00;99.90
7174;DHT22;3628;48.654;8.932;2022-10-17T05:08:07;10.00;99.90
7174;DHT22;3628;48.654;8.932;2022-10-17T05:10:37;10.00;99.90
7174;DHT22;3628;48.654;8.932;2022-10-17T05:13:03;10.00;99.90
7174;DHT22;3628;48.654;8.932;2022-10-17T05:15:28;10.00;99.90
7174;DHT22;3628;48.654;8.932;2022-10-17T05:17:55;10.00;99.90
7174;DHT22;3628;48.654;8.932;2022-10-17T05:20:21;10.10;99.90
7174;DHT22;3628;48.654;8.932;2022-10-17T05:22:46;10.10;99.90
7174;DHT22;3628;48.654;8.932;2022-10-17T05:25:12;10.10;99.90
7174;DHT22;3628;48.654;8.932;2022-10-17T05:27:38;10.10;99.90
7174;DHT22;3628;48.654;8.932;2022-10-17T05:30:04;10.00;99.90
7174;DHT22;3628;48.654;8.932;2022-10-17T05:32:30;10.00;99.90
7174;DHT22;3628;48.654;8.932;2022-10-17T05:34:55;10.00;99.90
7174;DHT22;3628;48.654;8.932;2022-10-17T05:37:21;10.00;99.90
7174;DHT22;3628;48.654;8.932;2022-10-17T05:39:47;10.00;99.90
7174;DHT22;3628;48.654;8.932;2022-10-17T05:42:12;10.00;99.90
7174;DHT22;3628;48.654;8.932;2022-10-17T05:44:38;10.00;99.90
7174;DHT22;3628;48.654;8.932;2022-10-17T05:47:06;9.90;99.90
7174;DHT22;3628;48.654;8.932;2022-10-17T05:49:31;9.90;99.90
7174;DHT22;3628;48.654;8.932;2022-10-17T05:51:57;9.90;99.90
7174;DHT22;3628;48.654;8.932;2022-10-17T05:54:22;9.90;99.90
7174;DHT22;3628;48.654;8.932;2022-10-17T05:56:52;9.90;99.90
7174;DHT22;3628;48.654;8.932;2022-10-17T05:59:18;9.80;99.90
7174;DHT22;3628;48.654;8.932;2022-10-17T06:01:44;9.80;99.90
7174;DHT22;3628;48.654;8.932;2022-10-17T06:04:09;9.80;99.90
7174;DHT22;3628;48.654;8.932;2022-10-17T06:06:36;9.80;99.90
7174;DHT22;3628;48.654;8.932;2022-10-17T06:09:03;9.80;99.90
7174;DHT22;3628;48.654;8.932;2022-10-17T06:11:28;9.80;99.90
7174;DHT22;3628;48.654;8.932;2022-10-17T06:13:54;9.90;99.90
7174;DHT22;3628;48.654;8.932;2022-10-17T06:16:20;9.90;99.90
7174;DHT22;3628;48.654;8.932;2022-10-17T06:18:45;9.90;99.90
7174;DHT22;3628;48.654;8.932;2022-10-17T06:21:14;10.00;99.90
7174;DHT22;3628;48.654;8.932;2022-10-17T06:23:41;10.00;99.90
7174;DHT22;3628;48.654;8.932;2022-10-17T06:26:07;10.10;99.90
7174;DHT22;3628;48.654;8.932;2022-10-17T06:28:33;10.20;99.90
7174;DHT22;3628;48.654;8.932;2022-10-17T06:31:02;10.20;99.90
7174;DHT22;3628;48.654;8.932;2022-10-17T06:33:28;10.30;99.90
7174;DHT22;3628;48.654;8.932;2022-10-17T06:35:54;10.50;99.90
7174;DHT22;3628;48.654;8.932;2022-10-17T06:38:21;10.50;99.90
7174;DHT22;3628;48.654;8.932;2022-10-17T06:40:47;10.70;99.90
7174;DHT22;3628;48.654;8.932;2022-10-17T06:43:13;10.80;99.90
7174;DHT22;3628;48.654;8.932;2022-10-17T06:45:39;10.90;99.90
7174;DHT22;3628;48.654;8.932;2022-10-17T06:48:05;11.10;99.90
7174;DHT22;3628;48.654;8.932;2022-10-17T06:50:31;11.20;99.90
7174;DHT22;3628;48.654;8.932;2022-10-17T06:52:56;11.30;99.90
7174;DHT22;3628;48.654;8.932;2022-10-17T06:55:22;11.50;99.90
7174;DHT22;3628;48.654;8.932;2022-10-17T06:57:48;11.60;99.90
7174;DHT22;3628;48.654;8.932;2022-10-17T07:00:13;11.80;99.90
7174;DHT22;3628;48.654;8.932;2022-10-17T07:02:41;12.00;99.90
7174;DHT22;3628;48.654;8.932;2022-10-17T07:05:08;12.20;99.90
7174;DHT22;3628;48.654;8.932;2022-10-17T07:07:34;12.40;99.90
7174;DHT22;3628;48.654;8.932;2022-10-17T07:10:00;12.60;99.90
7174;DHT22;3628;48.654;8.932;2022-10-17T07:12:25;12.70;99.90
7174;DHT22;3628;48.654;8.932;2022-10-17T07:14:51;12.90;99.90
7174;DHT22;3628;48.654;8.932;2022-10-17T07:17:17;13.10;99.90
7174;DHT22;3628;48.654;8.932;2022-10-17T07:19:43;13.30;99.90
7174;DHT22;3628;48.654;8.932;2022-10-17T07:22:10;13.50;99.90
7174;DHT22;3628;48.654;8.932;2022-10-17T07:24:35;13.70;99.90
7174;DHT22;3628;48.654;8.932;2022-10-17T07:27:01;13.90;99.90
7174;DHT22;3628;48.654;8.932;2022-10-17T07:29:28;14.20;99.90
7174;DHT22;3628;48.654;8.932;2022-10-17T07:31:53;14.40;99.90
7174;DHT22;3628;48.654;8.932;2022-10-17T07:34:19;14.60;99.90
7174;DHT22;3628;48.654;8.932;2022-10-17T07:36:45;14.80;99.90
7174;DHT22;3628;48.654;8.932;2022-10-17T07:39:11;15.00;99.90
7174;DHT22;3628;48.654;8.932;2022-10-17T07:41:37;15.20;99.90
7174;DHT22;3628;48.654;8.932;2022-10-17T07:44:02;15.50;99.90
7174;DHT22;3628;48.654;8.932;2022-10-17T07:46:28;15.70;99.90
7174;DHT22;3628;48.654;8.932;2022-10-17T07:48:54;15.90;99.90
7174;DHT22;3628;48.654;8.932;2022-10-17T07:51:19;16.10;99.90
7174;DHT22;3628;48.654;8.932;2022-10-17T07:53:46;16.20;99.90
7174;DHT22;3628;48.654;8.932;2022-10-17T07:56:12;16.30;99.90
7174;DHT22;3628;48.654;8.932;2022-10-17T07:58:37;16.50;99.90
7174;DHT22;3628;48.654;8.932;2022-10-17T08:01:05;16.80;99.90
7174;DHT22;3628;48.654;8.932;2022-10-17T08:03:31;17.00;99.90
7174;DHT22;3628;48.654;8.932;2022-10-17T08:06:01;17.20;99.90
7174;DHT22;3628;48.654;8.932;2022-10-17T08:08:27;17.40;99.90
7174;DHT22;3628;48.654;8.932;2022-10-17T08:10:59;17.60;99.90
7174;DHT22;3628;48.654;8.932;2022-10-17T08:13:25;17.90;99.90
7174;DHT22;3628;48.654;8.932;2022-10-17T08:15:50;18.10;99.90
7174;DHT22;3628;48.654;8.932;2022-10-17T08:18:16;18.40;99.90
7174;DHT22;3628;48.654;8.932;2022-10-17T08:20:42;18.60;99.90
7174;DHT22;3628;48.654;8.932;2022-10-17T08:23:08;18.80;99.90
7174;DHT22;3628;48.654;8.932;2022-10-17T08:25:37;19.00;99.90
7174;DHT22;3628;48.654;8.932;2022-10-17T08:28:04;19.30;99.90
7174;DHT22;3628;48.654;8.932;2022-10-17T08:30:30;19.40;99.90
7174;DHT22;3628;48.654;8.932;2022-10-17T08:32:55;19.60;99.90
7174;DHT22;3628;48.654;8.932;2022-10-17T08:35:21;19.80;99.90
7174;DHT22;3628;48.654;8.932;2022-10-17T08:37:47;19.90;99.90
7174;DHT22;3628;48.654;8.932;2022-10-17T08:40:22;20.10;99.90
7174;DHT22;3628;48.654;8.932;2022-10-17T08:45:47;20.40;99.90
7174;DHT22;3628;48.654;8.932;2022-10-17T08:48:18;20.60;99.90
7174;DHT22;3628;48.654;8.932;2022-10-17T08:50:55;20.80;99.90
7174;DHT22;3628;48.654;8.932;2022-10-17T08:55:52;21.00;99.90
7174;DHT22;3628;48.654;8.932;2022-10-17T09:03:37;21.10;99.90
7174;DHT22;3628;48.654;8.932;2022-10-17T09:11:39;21.20;99.90
7174;DHT22;3628;48.654;8.932;2022-10-17T09:19:45;21.20;99.90
7174;DHT22;3628;48.654;8.932;2022-10-17T09:22:17;21.20;99.90
7174;DHT22;3628;48.654;8.932;2022-10-17T09:24:51;21.40;99.90
7174;DHT22;3628;48.654;8.932;2022-10-17T09:27:45;21.40;99.90
7174;DHT22;3628;48.654;8.932;2022-10-17T09:32:40;21.40;99.90
7174;DHT22;3628;48.654;8.932;2022-10-17T09:35:12;21.40;99.90
7174;DHT22;3628;48.654;8.932;2022-10-17T09:37:38;21.60;99.90
7174;DHT22;3628;48.654;8.932;2022-10-17T09:40:06;21.60;99.90
7174;DHT22;3628;48.654;8.932;2022-10-17T09:42:34;21.60;99.90
7174;DHT22;3628;48.654;8.932;2022-10-17T09:49:51;21.80;99.90
7174;DHT22;3628;48.654;8.932;2022-10-17T09:55:05;21.80;99.90
7174;DHT22;3628;48.654;8.932;2022-10-17T10:00:25;21.80;99.90
7174;DHT22;3628;48.654;8.932;2022-10-17T10:05:39;22.10;99.90
7174;DHT22;3628;48.654;8.932;2022-10-17T10:08:15;22.20;99.90
7174;DHT22;3628;48.654;8.932;2022-10-17T10:10:42;22.30;99.90
7174;DHT22;3628;48.654;8.932;2022-10-17T10:15:39;22.30;99.90
7174;DHT22;3628;48.654;8.932;2022-10-17T10:18:33;22.30;99.90
7174;DHT22;3628;48.654;8.932;2022-10-17T10:23:38;22.50;99.90
7174;DHT22;3628;48.654;8.932;2022-10-17T10:26:23;22.60;99.90
7174;DHT22;3628;48.654;8.932;2022-10-17T10:28:59;22.60;99.90
7174;DHT22;3628;48.654;8.932;2022-10-17T10:31:31;22.70;99.90
7174;DHT22;3628;48.654;8.932;2022-10-17T10:33:59;22.80;99.90
7174;DHT22;3628;48.654;8.932;2022-10-17T10:37:23;22.80;99.90
7174;DHT22;3628;48.654;8.932;2022-10-17T10:39:35;22.90;99.90
7174;DHT22;3628;48.654;8.932;2022-10-17T10:42:04;22.90;99.90
7174;DHT22;3628;48.654;8.932;2022-10-17T10:44:32;23.00;99.90
7174;DHT22;3628;48.654;8.932;2022-10-17T10:47:25;23.20;99.90
7174;DHT22;3628;48.654;8.932;2022-10-17T10:50:24;23.40;99.90
7174;DHT22;3628;48.654;8.932;2022-10-17T10:55:35;23.60;99.90
7174;DHT22;3628;48.654;8.932;2022-10-17T10:58:15;23.90;99.90
7174;DHT22;3628;48.654;8.932;2022-10-17T11:00:44;24.10;99.90
7174;DHT22;3628;48.654;8.932;2022-10-17T11:06:18;24.60;99.90
7174;DHT22;3628;48.654;8.932;2022-10-17T11:09:10;24.70;99.90
7174;DHT22;3628;48.654;8.932;2022-10-17T11:11:41;24.80;99.90
7174;DHT22;3628;48.654;8.932;2022-10-17T11:14:19;24.90;99.90
7174;DHT22;3628;48.654;8.932;2022-10-17T11:24:29;25.40;99.90
7174;DHT22;3628;48.654;8.932;2022-10-17T11:27:03;25.50;99.90
7174;DHT22;3628;48.654;8.932;2022-10-17T11:29:34;25.60;99.90
7174;DHT22;3628;48.654;8.932;2022-10-17T11:32:27;25.70;99.90
7174;DHT22;3628;48.654;8.932;2022-10-17T11:35:00;25.80;99.90
7174;DHT22;3628;48.654;8.932;2022-10-17T11:37:30;26.00;99.90
7174;DHT22;3628;48.654;8.932;2022-10-17T11:40:02;26.10;99.90
7174;DHT22;3628;48.654;8.932;2022-10-17T11:42:38;26.00;99.90
7174;DHT22;3628;48.654;8.932;2022-10-17T11:45:11;26.20;99.90
7174;DHT22;3628;48.654;8.932;2022-10-17T11:47:43;26.20;99.90
7174;DHT22;3628;48.654;8.932;2022-10-17T11:50:29;26.40;99.90
7174;DHT22;3628;48.654;8.932;2022-10-17T11:55:27;26.60;99.90
7174;DHT22;3628;48.654;8.932;2022-10-17T12:03:47;26.70;99.20
7174;DHT22;3628;48.654;8.932;2022-10-17T12:12:01;26.60;98.10
7174;DHT22;3628;48.654;8.932;2022-10-17T12:14:36;26.60;98.00
7174;DHT22;3628;48.654;8.932;2022-10-17T12:17:03;26.70;97.40
7174;DHT22;3628;48.654;8.932;2022-10-17T12:19:34;26.80;96.50
7174;DHT22;3628;48.654;8.932;2022-10-17T12:24:55;26.80;90.90
7174;DHT22;3628;48.654;8.932;2022-10-17T12:30:26;26.50;84.80
7174;DHT22;3628;48.654;8.932;2022-10-17T12:35:47;26.50;86.40
7174;DHT22;3628;48.654;8.932;2022-10-17T12:51:16;26.40;85.00
7174;DHT22;3628;48.654;8.932;2022-10-17T12:56:16;26.50;81.50
7174;DHT22;3628;48.654;8.932;2022-10-17T12:58:45;26.70;84.00
7174;DHT22;3628;48.654;8.932;2022-10-17T13:01:36;26.60;83.40
7174;DHT22;3628;48.654;8.932;2022-10-17T13:04:02;26.60;80.10
7174;DHT22;3628;48.654;8.932;2022-10-17T13:06:33;26.50;81.00
7174;DHT22;3628;48.654;8.932;2022-10-17T13:09:36;26.40;80.80
7174;DHT22;3628;48.654;8.932;2022-10-17T13:12:04;26.40;83.50
7174;DHT22;3628;48.654;8.932;2022-10-17T13:14:32;26.30;81.80
7174;DHT22;3628;48.654;8.932;2022-10-17T13:17:00;26.30;81.60
7174;DHT22;3628;48.654;8.932;2022-10-17T13:19:30;26.20;81.10
7174;DHT22;3628;48.654;8.932;2022-10-17T13:22:01;26.30;83.10
7174;DHT22;3628;48.654;8.932;2022-10-17T13:26:52;26.40;82.20
7174;DHT22;3628;48.654;8.932;2022-10-17T13:29:17;26.40;81.40
7174;DHT22;3628;48.654;8.932;2022-10-17T13:31:51;26.30;79.30
7174;DHT22;3628;48.654;8.932;2022-10-17T13:34:21;26.30;82.80
7174;DHT22;3628;48.654;8.932;2022-10-17T13:36:49;26.40;83.50
7174;DHT22;3628;48.654;8.932;2022-10-17T13:39:18;26.30;81.60
7174;DHT22;3628;48.654;8.932;2022-10-17T13:41:45;26.10;81.10
7174;DHT22;3628;48.654;8.932;2022-10-17T13:44:17;26.00;82.60
7174;DHT22;3628;48.654;8.932;2022-10-17T13:46:43;26.10;85.30
7174;DHT22;3628;48.654;8.932;2022-10-17T13:49:21;26.20;85.80
7174;DHT22;3628;48.654;8.932;2022-10-17T13:51:50;26.20;83.20
7174;DHT22;3628;48.654;8.932;2022-10-17T13:56:58;26.20;84.30
7174;DHT22;3628;48.654;8.932;2022-10-17T13:59:35;26.20;84.10
7174;DHT22;3628;48.654;8.932;2022-10-17T14:02:01;26.20;84.30
7174;DHT22;3628;48.654;8.932;2022-10-17T14:04:27;26.20;82.30
7174;DHT22;3628;48.654;8.932;2022-10-17T14:06:53;26.20;82.80
7174;DHT22;3628;48.654;8.932;2022-10-17T14:09:24;26.20;82.30
7174;DHT22;3628;48.654;8.932;2022-10-17T14:12:09;26.30;83.20
7174;DHT22;3628;48.654;8.932;2022-10-17T14:14:37;26.20;83.00
7174;DHT22;3628;48.654;8.932;2022-10-17T14:17:24;26.20;81.30
7174;DHT22;3628;48.654;8.932;2022-10-17T14:20:02;26.20;81.80
7174;DHT22;3628;48.654;8.932;2022-10-17T14:22:32;26.10;82.60
7174;DHT22;3628;48.654;8.932;2022-10-17T14:24:58;26.10;82.90
7174;DHT22;3628;48.654;8.932;2022-10-17T14:27:34;26.10;83.40
7174;DHT22;3628;48.654;8.932;2022-10-17T14:30:06;26.10;85.40
7174;DHT22;3628;48.654;8.932;2022-10-17T14:32:34;26.00;81.20
7174;DHT22;3628;48.654;8.932;2022-10-17T14:35:02;25.90;83.20
7174;DHT22;3628;48.654;8.932;2022-10-17T14:37:41;25.80;83.50
7174;DHT22;3628;48.654;8.932;2022-10-17T14:40:23;25.80;84.00
7174;DHT22;3628;48.654;8.932;2022-10-17T14:42:54;25.60;84.60
7174;DHT22;3628;48.654;8.932;2022-10-17T14:45:27;25.50;84.80
7174;DHT22;3628;48.654;8.932;2022-10-17T14:47:59;25.50;86.20
7174;DHT22;3628;48.654;8.932;2022-10-17T14:50:31;25.50;86.10
7174;DHT22;3628;48.654;8.932;2022-10-17T14:53:17;25.30;84.20
7174;DHT22;3628;48.654;8.932;2022-10-17T14:55:57;25.30;86.20
7174;DHT22;3628;48.654;8.932;2022-10-17T14:58:33;25.10;87.10
7174;DHT22;3628;48.654;8.932;2022-10-17T15:01:00;24.90;87.10
7174;DHT22;3628;48.654;8.932;2022-10-17T15:03:26;24.70;87.00
7174;DHT22;3628;48.654;8.932;2022-10-17T15:05:53;24.60;89.90
7174;DHT22;3628;48.654;8.932;2022-10-17T15:08:21;24.60;88.40
7174;DHT22;3628;48.654;8.932;2022-10-17T15:10:48;24.50;88.70
7174;DHT22;3628;48.654;8.932;2022-10-17T15:13:14;24.50;88.80
7174;DHT22;3628;48.654;8.932;2022-10-17T15:15:41;24.50;88.70
7174;DHT22;3628;48.654;8.932;2022-10-17T15:18:10;24.50;88.30
7174;DHT22;3628;48.654;8.932;2022-10-17T15:20:36;24.50;88.90
7174;DHT22;3628;48.654;8.932;2022-10-17T15:23:02;24.50;90.20
7174;DHT22;3628;48.654;8.932;2022-10-17T15:25:29;24.50;90.20
7174;DHT22;3628;48.654;8.932;2022-10-17T15:27:55;24.50;90.10
7174;DHT22;3628;48.654;8.932;2022-10-17T15:30:29;24.50;90.40
7174;DHT22;3628;48.654;8.932;2022-10-17T15:32:56;24.40;90.70
7174;DHT22;3628;48.654;8.932;2022-10-17T15:35:23;24.40;90.80
7174;DHT22;3628;48.654;8.932;2022-10-17T15:37:49;24.30;91.20
7174;DHT22;3628;48.654;8.932;2022-10-17T15:40:20;24.30;91.40
7174;DHT22;3628;48.654;8.932;2022-10-17T15:42:46;24.20;91.30
7174;DHT22;3628;48.654;8.932;2022-10-17T15:45:14;24.20;91.50
7174;DHT22;3628;48.654;8.932;2022-10-17T15:47:41;24.10;91.60
7174;DHT22;3628;48.654;8.932;2022-10-17T15:50:13;24.00;92.80
7174;DHT22;3628;48.654;8.932;2022-10-17T15:52:38;23.90;94.10
7174;DHT22;3628;48.654;8.932;2022-10-17T15:55:06;23.80;95.40
7174;DHT22;3628;48.654;8.932;2022-10-17T15:57:35;23.50;96.10
7174;DHT22;3628;48.654;8.932;2022-10-17T16:00:06;23.50;96.60
7174;DHT22;3628;48.654;8.932;2022-10-17T16:02:32;23.30;97.00
7174;DHT22;3628;48.654;8.932;2022-10-17T16:04:58;23.30;97.70
7174;DHT22;3628;48.654;8.932;2022-10-17T16:07:24;23.20;98.30
7174;DHT22;3628;48.654;8.932;2022-10-17T16:09:50;23.10;99.30
7174;DHT22;3628;48.654;8.932;2022-10-17T16:12:20;23.00;99.90
7174;DHT22;3628;48.654;8.932;2022-10-17T16:14:47;22.80;99.90
7174;DHT22;3628;48.654;8.932;2022-10-17T16:17:14;22.60;99.90
7174;DHT22;3628;48.654;8.932;2022-10-17T16:19:41;22.40;99.90
7174;DHT22;3628;48.654;8.932;2022-10-17T16:22:29;22.10;99.90
7174;DHT22;3628;48.654;8.932;2022-10-17T16:24:56;21.90;99.90
7174;DHT22;3628;48.654;8.932;2022-10-17T16:27:28;21.70;99.90
7174;DHT22;3628;48.654;8.932;2022-10-17T16:29:53;21.50;99.90
7174;DHT22;3628;48.654;8.932;2022-10-17T16:32:19;21.30;99.90
7174;DHT22;3628;48.654;8.932;2022-10-17T16:34:44;21.00;99.90
7174;DHT22;3628;48.654;8.932;2022-10-17T16:37:10;20.80;99.90
7174;DHT22;3628;48.654;8.932;2022-10-17T16:39:36;20.60;99.90
7174;DHT22;3628;48.654;8.932;2022-10-17T16:42:01;20.40;99.90
7174;DHT22;3628;48.654;8.932;2022-10-17T16:44:27;20.20;99.90
7174;DHT22;3628;48.654;8.932;2022-10-17T16:46:52;20.10;99.90
7174;DHT22;3628;48.654;8.932;2022-10-17T16:49:18;19.90;99.90
7174;DHT22;3628;48.654;8.932;2022-10-17T16:51:43;19.70;99.90
7174;DHT22;3628;48.654;8.932;2022-10-17T16:54:09;19.60;99.90
7174;DHT22;3628;48.654;8.932;2022-10-17T16:56:34;19.40;99.90
7174;DHT22;3628;48.654;8.932;2022-10-17T16:59:00;19.30;99.90
7174;DHT22;3628;48.654;8.932;2022-10-17T17:01:26;19.10;99.90
7174;DHT22;3628;48.654;8.932;2022-10-17T17:03:55;19.00;99.90
7174;DHT22;3628;48.654;8.932;2022-10-17T17:06:26;18.90;99.90
7174;DHT22;3628;48.654;8.932;2022-10-17T17:08:53;18.70;99.90
7174;DHT22;3628;48.654;8.932;2022-10-17T17:11:20;18.60;99.90
7174;DHT22;3628;48.654;8.932;2022-10-17T17:13:46;18.40;99.90
7174;DHT22;3628;48.654;8.932;2022-10-17T17:16:19;18.20;99.90
7174;DHT22;3628;48.654;8.932;2022-10-17T17:18:46;18.10;99.90
7174;DHT22;3628;48.654;8.932;2022-10-17T17:21:13;18.00;99.90
7174;DHT22;3628;48.654;8.932;2022-10-17T17:23:40;18.00;99.90
7174;DHT22;3628;48.654;8.932;2022-10-17T17:26:09;17.90;99.90
7174;DHT22;3628;48.654;8.932;2022-10-17T17:28:35;17.90;99.90
7174;DHT22;3628;48.654;8.932;2022-10-17T17:31:01;17.80;99.90
7174;DHT22;3628;48.654;8.932;2022-10-17T17:33:27;17.70;99.90
7174;DHT22;3628;48.654;8.932;2022-10-17T17:35:59;17.70;99.90
7174;DHT22;3628;48.654;8.932;2022-10-17T17:38:28;17.70;99.90
7174;DHT22;3628;48.654;8.932;2022-10-17T17:40:54;17.60;99.90
7174;DHT22;3628;48.654;8.932;2022-10-17T17:43:20;17.60;99.90
7174;DHT22;3628;48.654;8.932;2022-10-17T17:45:46;17.50;99.90
7174;DHT22;3628;48.654;8.932;2022-10-17T17:48:12;17.50;99.90
7174;DHT22;3628;48.654;8.932;2022-10-17T17:50:39;17.40;99.90
7174;DHT22;3628;48.654;8.932;2022-10-17T17:53:05;17.30;99.90
7174;DHT22;3628;48.654;8.932;2022-10-17T17:55:32;17.30;99.90
7174;DHT22;3628;48.654;8.932;2022-10-17T17:57:57;17.20;99.90
7174;DHT22;3628;48.654;8.932;2022-10-17T18:00:23;17.10;99.90
7174;DHT22;3628;48.654;8.932;2022-10-17T18:02:49;17.00;99.90
7174;DHT22;3628;48.654;8.932;2022-10-17T18:05:14;17.00;99.90
7174;DHT22;3628;48.654;8.932;2022-10-17T18:07:40;16.90;99.90
7174;DHT22;3628;48.654;8.932;2022-10-17T18:10:06;16.80;99.90
7174;DHT22;3628;48.654;8.932;2022-10-17T18:12:32;16.80;99.90
7174;DHT22;3628;48.654;8.932;2022-10-17T18:14:59;16.70;99.90
7174;DHT22;3628;48.654;8.932;2022-10-17T18:17:26;16.60;99.90
7174;DHT22;3628;48.654;8.932;2022-10-17T18:19:52;16.50;99.90